Saturday, November 18, 2017, 4:39 PM EST
Back to Local

KSMQ, Somerville Somerset Airport

Location: Bedminster, NJ, United States Lat: 40.617
Local Time: 4:39 PM EST (21:39 GMT) Lon: -74.667
Time Zone: US/Eastern Elev: 104 ft

Show me the last for .
Show Decoded

2017-11-18 16:24 METAR KSMQ 182124Z AUTO 00000KT 2 1/2SM -RA BR FEW060 OVC090 07/06 A2963 RMK AO2
                 P0003 T00670061 =
2017-11-18 15:53 METAR KSMQ 182053Z AUTO 33003KT 3SM -RA BR BKN050 OVC095 07/06 A2965 RMK AO2
                 RAB1956 SLP043 P0004 60005 T00670061 56030 =
2017-11-18 15:39 METAR KSMQ 182039Z AUTO 00000KT 2 1/2SM -RA BR SCT050 OVC100 07/07 A2966 RMK AO2
                 RAB1956 P0003 T00720067 =
2017-11-18 14:53 METAR KSMQ 181953Z AUTO 30003KT 10SM BKN065 BKN090 OVC110 08/07 A2967 RMK AO2
                 RAB01E51 SLP048 P0001 T00780067 =
2017-11-18 13:53 METAR KSMQ 181853Z AUTO 00000KT 10SM OVC095 09/05 A2969 RMK AO2 RAE40 SLP056
                 P0000 T00890050 =
2017-11-18 12:53 METAR KSMQ 181753Z AUTO 00000KT 10SM -RA OVC090 07/03 A2974 RMK AO2 RAB40 SLP073
                 P0000 60000 T00720028 10072 21044 58055 =
2017-11-18 11:53 METAR KSMQ 181653Z AUTO 16004KT 10SM SCT120 07/02 A2979 RMK AO2 SLP090 T00670017
                 =
2017-11-18 10:53 METAR KSMQ 181553Z AUTO 00000KT 10SM CLR 03/M01 A2986 RMK AO2 PRESFR SLP113
                 T00281011 =
2017-11-18 09:53 METAR KSMQ 181453Z AUTO 00000KT 10SM CLR 00/M02 A2990 RMK AO2 SLP128 T00001022
                 56025 =
2017-11-18 08:53 METAR KSMQ 181353Z AUTO 00000KT 10SM CLR M02/M03 A2992 RMK AO2 SLP136 T10171028
                 =
2017-11-18 07:53 METAR KSMQ 181253Z AUTO 00000KT 10SM CLR M03/M05 A2995 RMK AO2 SLP145 T10331050
                 =
2017-11-18 06:53 METAR KSMQ 181153Z AUTO 00000KT 10SM CLR M04/M06 A2998 RMK AO2 SLP154 I6000
                 T10441056 11039 21061 58008 =
2017-11-18 05:53 METAR KSMQ 181053Z AUTO 00000KT 10SM CLR M05/M06 A2999 RMK AO2 SLP158 T10501056
                 =
2017-11-18 04:53 METAR KSMQ 180953Z AUTO 00000KT 10SM CLR M06/M07 A3000 RMK AO2 SLP160 I1000
                 T10561067 =
2017-11-18 03:53 METAR KSMQ 180853Z AUTO 00000KT 10SM CLR M06/M06 A3000 RMK AO2 SLP161 I1000
                 I3000 T10561061 58015 =
2017-11-18 02:53 METAR KSMQ 180753Z AUTO 00000KT 10SM CLR M05/M06 A3000 RMK AO2 SLP163 T10501061
                 =
2017-11-18 01:53 METAR KSMQ 180653Z AUTO 00000KT 10SM CLR M04/M06 A3004 RMK AO2 SLP175 T10441056
                 =
2017-11-18 00:53 METAR KSMQ 180553Z AUTO 00000KT 10SM CLR M04/M06 A3004 RMK AO2 SLP176 T10441061
                 10017 21044 58015 =
2017-11-17 23:53 METAR KSMQ 180453Z AUTO 31003KT 10SM CLR M03/M06 A3007 RMK AO2 SLP184 T10331056
                 401001039 =
2017-11-17 22:53 METAR KSMQ 180353Z AUTO 30003KT 10SM CLR M03/M05 A3008 RMK AO2 SLP187 T10281050
                 =
2017-11-17 21:53 METAR KSMQ 180253Z AUTO 00000KT 10SM CLR M02/M06 A3009 RMK AO2 SLP191 T10221056
                 53000 =
2017-11-17 20:53 METAR KSMQ 180153Z AUTO 00000KT 10SM CLR M02/M06 A3009 RMK AO2 SLP191 T10221056
                 =
2017-11-17 19:53 METAR KSMQ 180053Z AUTO 00000KT 10SM CLR 00/M06 A3009 RMK AO2 SLP189 T00001056 =
2017-11-17 18:53 METAR KSMQ 172353Z AUTO 03004KT 10SM CLR 02/M07 A3009 RMK AO2 SLP190 T00171067
                 10100 20017 51007 =
2017-11-17 17:53 METAR KSMQ 172253Z AUTO 31004KT 10SM CLR 05/M08 A3008 RMK AO2 SLP189 T00501078 =
2017-11-17 16:53 METAR KSMQ 172153Z AUTO 31005KT 10SM CLR 06/M07 A3008 RMK AO2 SLP189 T00611072 =

Support USWX by starting your Amazon purchase here.